ADDS - METARS form results

Aviation Digital Data Service (ADDS)

Output produced by METARs form (1108 UTC 19 April 2019)
found at http://aviationweather.gov/metar/data/
 
METAR text: KC09 191055Z AUTO 01011G17KT 10SM OVC026 06/03 A2978 RMK AO2 T00610029
Conditions at: KC09 (MORRIS-WASHBURN , IL, US) observed 1055 UTC 19 April 2019
Temperature: 6.1°C (43°F)
Dewpoint: 2.9°C (37°F) [RH = 80%]
Pressure (altimeter): 29.78 inches Hg (1008.5 mb)
Winds: from the N (10 degrees) at 13 MPH (11 knots; 5.7 m/s)
gusting to 20 MPH (17 knots; 8.7 m/s)
Visibility: 10 or more miles (16+ km)
Ceiling: 2600 feet AGL
Clouds: overcast cloud deck at 2600 feet AGL
Weather: automated observation with no human augmentation;
there may or may not be significant weather present at this time

METAR text: KC09 191035Z AUTO 01008G17KT 10SM BKN026 OVC033 06/03 A2977 RMK AO2 T00610028
Conditions at: KC09 (MORRIS-WASHBURN , IL, US) observed 1035 UTC 19 April 2019
Temperature: 6.1°C (43°F)
Dewpoint: 2.8°C (37°F) [RH = 79%]
Pressure (altimeter): 29.77 inches Hg (1008.2 mb)
Winds: from the N (10 degrees) at 9 MPH (8 knots; 4.1 m/s)
gusting to 20 MPH (17 knots; 8.7 m/s)
Visibility: 10 or more miles (16+ km)
Ceiling: 2600 feet AGL
Clouds: broken clouds at 2600 feet AGL
overcast cloud deck at 3300 feet AGL
Weather: automated observation with no human augmentation;
there may or may not be significant weather present at this time

METAR text: KC09 191015Z AUTO 01006KT 10SM OVC029 06/03 A2976 RMK AO2 T00620029
Conditions at: KC09 (MORRIS-WASHBURN , IL, US) observed 1015 UTC 19 April 2019
Temperature: 6.2°C (43°F)
Dewpoint: 2.9°C (37°F) [RH = 79%]
Pressure (altimeter): 29.76 inches Hg (1007.9 mb)
Winds: from the N (10 degrees) at 7 MPH (6 knots; 3.1 m/s)
Visibility: 10 or more miles (16+ km)
Ceiling: 2900 feet AGL
Clouds: overcast cloud deck at 2900 feet AGL
Weather: automated observation with no human augmentation;
there may or may not be significant weather present at this time